sensor_id;sensor_type;location;lat;lon;timestamp;P1;durP1;ratioP1;P2;durP2;ratioP2
2658;SDS011;1339;53.304;10.406;2022-08-03T00:00:19;5.87;;;5.30;;
2658;SDS011;1339;53.304;10.406;2022-08-03T00:02:48;6.60;;;4.70;;
2658;SDS011;1339;53.304;10.406;2022-08-03T00:05:16;4.70;;;4.40;;
2658;SDS011;1339;53.304;10.406;2022-08-03T00:07:43;5.17;;;4.77;;
2658;SDS011;1339;53.304;10.406;2022-08-03T00:10:11;5.40;;;4.90;;
2658;SDS011;1339;53.304;10.406;2022-08-03T00:12:39;5.10;;;4.67;;
2658;SDS011;1339;53.304;10.406;2022-08-03T00:15:06;5.67;;;5.17;;
2658;SDS011;1339;53.304;10.406;2022-08-03T00:17:34;5.33;;;4.93;;
2658;SDS011;1339;53.304;10.406;2022-08-03T00:20:01;4.83;;;4.43;;
2658;SDS011;1339;53.304;10.406;2022-08-03T00:22:30;4.67;;;4.37;;
2658;SDS011;1339;53.304;10.406;2022-08-03T00:24:57;5.00;;;4.70;;
2658;SDS011;1339;53.304;10.406;2022-08-03T00:27:25;5.20;;;4.80;;
2658;SDS011;1339;53.304;10.406;2022-08-03T00:29:53;7.13;;;6.53;;
2658;SDS011;1339;53.304;10.406;2022-08-03T00:32:20;5.03;;;4.63;;
2658;SDS011;1339;53.304;10.406;2022-08-03T00:34:47;5.57;;;5.17;;
2658;SDS011;1339;53.304;10.406;2022-08-03T00:37:14;5.80;;;5.40;;
2658;SDS011;1339;53.304;10.406;2022-08-03T00:39:42;5.70;;;5.30;;
2658;SDS011;1339;53.304;10.406;2022-08-03T00:42:11;6.23;;;5.70;;
2658;SDS011;1339;53.304;10.406;2022-08-03T00:44:39;6.20;;;5.67;;
2658;SDS011;1339;53.304;10.406;2022-08-03T00:47:06;6.73;;;5.90;;
2658;SDS011;1339;53.304;10.406;2022-08-03T00:49:34;6.77;;;6.27;;
2658;SDS011;1339;53.304;10.406;2022-08-03T00:52:01;6.77;;;6.27;;
2658;SDS011;1339;53.304;10.406;2022-08-03T00:54:29;6.23;;;5.50;;
2658;SDS011;1339;53.304;10.406;2022-08-03T00:56:57;6.20;;;5.80;;
2658;SDS011;1339;53.304;10.406;2022-08-03T00:59:25;5.87;;;5.37;;
2658;SDS011;1339;53.304;10.406;2022-08-03T01:01:52;6.63;;;6.00;;
2658;SDS011;1339;53.304;10.406;2022-08-03T01:04:19;5.07;;;4.70;;
2658;SDS011;1339;53.304;10.406;2022-08-03T01:06:48;6.63;;;5.93;;
2658;SDS011;1339;53.304;10.406;2022-08-03T01:09:17;5.43;;;5.13;;
2658;SDS011;1339;53.304;10.406;2022-08-03T01:11:47;5.30;;;4.90;;
2658;SDS011;1339;53.304;10.406;2022-08-03T01:14:19;5.60;;;5.10;;
2658;SDS011;1339;53.304;10.406;2022-08-03T01:16:49;5.30;;;4.90;;
2658;SDS011;1339;53.304;10.406;2022-08-03T01:19:25;5.60;;;5.20;;
2658;SDS011;1339;53.304;10.406;2022-08-03T01:21:58;7.10;;;5.70;;
2658;SDS011;1339;53.304;10.406;2022-08-03T01:24:32;5.93;;;5.43;;
2658;SDS011;1339;53.304;10.406;2022-08-03T01:27:04;6.27;;;5.67;;
2658;SDS011;1339;53.304;10.406;2022-08-03T01:29:50;6.33;;;5.73;;
2658;SDS011;1339;53.304;10.406;2022-08-03T01:32:19;5.70;;;5.23;;
2658;SDS011;1339;53.304;10.406;2022-08-03T01:34:47;5.53;;;5.13;;
2658;SDS011;1339;53.304;10.406;2022-08-03T01:37:23;6.43;;;5.83;;
2658;SDS011;1339;53.304;10.406;2022-08-03T01:39:52;6.00;;;5.50;;
2658;SDS011;1339;53.304;10.406;2022-08-03T01:42:21;6.70;;;6.10;;
2658;SDS011;1339;53.304;10.406;2022-08-03T01:44:51;6.40;;;5.87;;
2658;SDS011;1339;53.304;10.406;2022-08-03T01:47:19;6.50;;;5.90;;
2658;SDS011;1339;53.304;10.406;2022-08-03T01:49:46;6.97;;;6.37;;
2658;SDS011;1339;53.304;10.406;2022-08-03T01:52:16;9.37;;;8.47;;
2658;SDS011;1339;53.304;10.406;2022-08-03T01:54:44;7.37;;;6.63;;
2658;SDS011;1339;53.304;10.406;2022-08-03T01:57:12;8.40;;;7.63;;
2658;SDS011;1339;53.304;10.406;2022-08-03T01:59:39;8.00;;;7.30;;
2658;SDS011;1339;53.304;10.406;2022-08-03T02:02:09;6.70;;;6.20;;
2658;SDS011;1339;53.304;10.406;2022-08-03T02:04:38;7.13;;;6.60;;
2658;SDS011;1339;53.304;10.406;2022-08-03T02:07:06;6.80;;;6.23;;
2658;SDS011;1339;53.304;10.406;2022-08-03T02:09:34;7.20;;;6.60;;
2658;SDS011;1339;53.304;10.406;2022-08-03T02:12:03;7.80;;;7.20;;
2658;SDS011;1339;53.304;10.406;2022-08-03T02:14:33;7.97;;;7.27;;
2658;SDS011;1339;53.304;10.406;2022-08-03T02:17:00;8.40;;;7.60;;
2658;SDS011;1339;53.304;10.406;2022-08-03T02:19:29;8.93;;;7.67;;
2658;SDS011;1339;53.304;10.406;2022-08-03T02:21:56;8.30;;;7.50;;
2658;SDS011;1339;53.304;10.406;2022-08-03T02:24:24;7.93;;;7.23;;
2658;SDS011;1339;53.304;10.406;2022-08-03T02:26:51;7.80;;;7.20;;
2658;SDS011;1339;53.304;10.406;2022-08-03T02:29:19;7.00;;;6.50;;
2658;SDS011;1339;53.304;10.406;2022-08-03T02:31:47;7.73;;;6.87;;
2658;SDS011;1339;53.304;10.406;2022-08-03T02:34:15;9.60;;;8.73;;
2658;SDS011;1339;53.304;10.406;2022-08-03T02:36:45;7.63;;;6.93;;
2658;SDS011;1339;53.304;10.406;2022-08-03T02:39:12;7.73;;;6.90;;
2658;SDS011;1339;53.304;10.406;2022-08-03T02:41:42;7.30;;;6.67;;
2658;SDS011;1339;53.304;10.406;2022-08-03T02:44:11;7.10;;;6.40;;
2658;SDS011;1339;53.304;10.406;2022-08-03T02:46:39;6.27;;;5.67;;
2658;SDS011;1339;53.304;10.406;2022-08-03T02:49:08;7.03;;;6.53;;
2658;SDS011;1339;53.304;10.406;2022-08-03T02:51:36;7.13;;;6.53;;
2658;SDS011;1339;53.304;10.406;2022-08-03T02:54:06;7.67;;;6.90;;
2658;SDS011;1339;53.304;10.406;2022-08-03T02:56:34;6.50;;;6.00;;
2658;SDS011;1339;53.304;10.406;2022-08-03T02:59:02;6.90;;;6.40;;
2658;SDS011;1339;53.304;10.406;2022-08-03T03:01:30;6.63;;;6.13;;
2658;SDS011;1339;53.304;10.406;2022-08-03T03:03:58;7.23;;;6.73;;
2658;SDS011;1339;53.304;10.406;2022-08-03T03:06:25;7.30;;;6.70;;
2658;SDS011;1339;53.304;10.406;2022-08-03T03:08:53;7.80;;;6.73;;
2658;SDS011;1339;53.304;10.406;2022-08-03T03:11:24;7.27;;;6.70;;
2658;SDS011;1339;53.304;10.406;2022-08-03T03:13:51;6.90;;;6.40;;
2658;SDS011;1339;53.304;10.406;2022-08-03T03:16:18;7.07;;;6.37;;
2658;SDS011;1339;53.304;10.406;2022-08-03T03:18:46;7.27;;;6.77;;
2658;SDS011;1339;53.304;10.406;2022-08-03T03:21:15;6.60;;;6.10;;
2658;SDS011;1339;53.304;10.406;2022-08-03T03:23:43;7.00;;;6.40;;
2658;SDS011;1339;53.304;10.406;2022-08-03T03:26:11;5.93;;;5.53;;
2658;SDS011;1339;53.304;10.406;2022-08-03T03:28:40;6.90;;;6.40;;
2658;SDS011;1339;53.304;10.406;2022-08-03T03:31:08;5.70;;;5.30;;
2658;SDS011;1339;53.304;10.406;2022-08-03T03:33:35;6.40;;;5.93;;
2658;SDS011;1339;53.304;10.406;2022-08-03T03:36:03;7.17;;;6.20;;
2658;SDS011;1339;53.304;10.406;2022-08-03T03:38:31;7.40;;;6.77;;
2658;SDS011;1339;53.304;10.406;2022-08-03T03:40:58;6.37;;;5.87;;
2658;SDS011;1339;53.304;10.406;2022-08-03T03:43:25;6.90;;;6.40;;
2658;SDS011;1339;53.304;10.406;2022-08-03T03:45:54;6.70;;;6.23;;
2658;SDS011;1339;53.304;10.406;2022-08-03T03:48:23;6.73;;;6.17;;
2658;SDS011;1339;53.304;10.406;2022-08-03T03:50:50;7.40;;;6.80;;
2658;SDS011;1339;53.304;10.406;2022-08-03T03:53:17;6.40;;;6.00;;
2658;SDS011;1339;53.304;10.406;2022-08-03T03:55:45;7.27;;;6.67;;
2658;SDS011;1339;53.304;10.406;2022-08-03T03:58:12;5.77;;;5.37;;
2658;SDS011;1339;53.304;10.406;2022-08-03T04:00:39;6.60;;;6.10;;
2658;SDS011;1339;53.304;10.406;2022-08-03T04:03:10;6.40;;;5.80;;
2658;SDS011;1339;53.304;10.406;2022-08-03T04:05:37;7.37;;;6.87;;
2658;SDS011;1339;53.304;10.406;2022-08-03T04:08:22;7.83;;;7.20;;
2658;SDS011;1339;53.304;10.406;2022-08-03T04:11:09;6.87;;;6.27;;
2658;SDS011;1339;53.304;10.406;2022-08-03T04:13:38;6.50;;;6.00;;
2658;SDS011;1339;53.304;10.406;2022-08-03T04:16:06;7.03;;;6.43;;
2658;SDS011;1339;53.304;10.406;2022-08-03T04:18:36;8.43;;;6.23;;
2658;SDS011;1339;53.304;10.406;2022-08-03T04:21:05;7.10;;;6.60;;
2658;SDS011;1339;53.304;10.406;2022-08-03T04:23:34;7.50;;;7.00;;
2658;SDS011;1339;53.304;10.406;2022-08-03T04:26:02;6.63;;;6.13;;
2658;SDS011;1339;53.304;10.406;2022-08-03T04:28:32;6.93;;;6.43;;
2658;SDS011;1339;53.304;10.406;2022-08-03T04:31:00;6.90;;;6.10;;
2658;SDS011;1339;53.304;10.406;2022-08-03T04:33:28;7.27;;;6.50;;
2658;SDS011;1339;53.304;10.406;2022-08-03T04:35:59;7.77;;;6.97;;
2658;SDS011;1339;53.304;10.406;2022-08-03T04:38:27;6.77;;;6.17;;
2658;SDS011;1339;53.304;10.406;2022-08-03T04:40:55;7.37;;;6.77;;
2658;SDS011;1339;53.304;10.406;2022-08-03T04:43:23;6.40;;;5.97;;
2658;SDS011;1339;53.304;10.406;2022-08-03T04:45:51;6.47;;;5.97;;
2658;SDS011;1339;53.304;10.406;2022-08-03T04:48:19;6.37;;;5.97;;
2658;SDS011;1339;53.304;10.406;2022-08-03T04:50:46;6.67;;;6.17;;
2658;SDS011;1339;53.304;10.406;2022-08-03T04:53:15;7.17;;;6.57;;
2658;SDS011;1339;53.304;10.406;2022-08-03T04:55:42;7.07;;;6.47;;
2658;SDS011;1339;53.304;10.406;2022-08-03T04:58:09;7.33;;;6.73;;
2658;SDS011;1339;53.304;10.406;2022-08-03T05:00:37;6.90;;;6.50;;
2658;SDS011;1339;53.304;10.406;2022-08-03T05:03:04;6.53;;;6.13;;
2658;SDS011;1339;53.304;10.406;2022-08-03T05:05:32;6.77;;;6.37;;
2658;SDS011;1339;53.304;10.406;2022-08-03T05:07:59;7.33;;;6.83;;
2658;SDS011;1339;53.304;10.406;2022-08-03T05:10:27;7.23;;;6.53;;
2658;SDS011;1339;53.304;10.406;2022-08-03T05:12:54;6.60;;;6.10;;
2658;SDS011;1339;53.304;10.406;2022-08-03T05:15:22;7.77;;;6.93;;
2658;SDS011;1339;53.304;10.406;2022-08-03T05:17:49;6.40;;;5.93;;
2658;SDS011;1339;53.304;10.406;2022-08-03T05:20:16;6.60;;;6.13;;
2658;SDS011;1339;53.304;10.406;2022-08-03T05:22:43;6.83;;;6.30;;
2658;SDS011;1339;53.304;10.406;2022-08-03T05:25:10;6.20;;;5.70;;
2658;SDS011;1339;53.304;10.406;2022-08-03T05:27:39;6.80;;;6.30;;
2658;SDS011;1339;53.304;10.406;2022-08-03T05:30:06;7.03;;;6.53;;
2658;SDS011;1339;53.304;10.406;2022-08-03T05:32:33;6.73;;;6.23;;
2658;SDS011;1339;53.304;10.406;2022-08-03T05:35:01;7.93;;;7.13;;
2658;SDS011;1339;53.304;10.406;2022-08-03T05:37:28;7.60;;;7.10;;
2658;SDS011;1339;53.304;10.406;2022-08-03T05:39:55;6.80;;;6.30;;
2658;SDS011;1339;53.304;10.406;2022-08-03T05:42:22;7.80;;;7.20;;
2658;SDS011;1339;53.304;10.406;2022-08-03T05:44:51;6.70;;;6.07;;
2658;SDS011;1339;53.304;10.406;2022-08-03T05:47:18;7.03;;;5.90;;
2658;SDS011;1339;53.304;10.406;2022-08-03T05:49:45;7.30;;;6.53;;
2658;SDS011;1339;53.304;10.406;2022-08-03T05:52:12;7.47;;;6.73;;
2658;SDS011;1339;53.304;10.406;2022-08-03T05:54:39;8.67;;;7.87;;
2658;SDS011;1339;53.304;10.406;2022-08-03T05:57:07;6.43;;;5.97;;
2658;SDS011;1339;53.304;10.406;2022-08-03T05:59:36;8.30;;;7.60;;
2658;SDS011;1339;53.304;10.406;2022-08-03T06:02:05;6.87;;;6.33;;
2658;SDS011;1339;53.304;10.406;2022-08-03T06:04:32;7.10;;;6.27;;
2658;SDS011;1339;53.304;10.406;2022-08-03T06:06:59;7.10;;;6.60;;
2658;SDS011;1339;53.304;10.406;2022-08-03T06:09:27;6.20;;;5.70;;
2658;SDS011;1339;53.304;10.406;2022-08-03T06:11:54;6.60;;;6.20;;
2658;SDS011;1339;53.304;10.406;2022-08-03T06:14:21;5.83;;;5.43;;
2658;SDS011;1339;53.304;10.406;2022-08-03T06:16:49;6.57;;;5.97;;
2658;SDS011;1339;53.304;10.406;2022-08-03T06:19:17;5.67;;;5.27;;
2658;SDS011;1339;53.304;10.406;2022-08-03T06:21:44;6.10;;;5.70;;
2658;SDS011;1339;53.304;10.406;2022-08-03T06:24:11;7.07;;;6.37;;
2658;SDS011;1339;53.304;10.406;2022-08-03T06:26:39;6.43;;;5.93;;
2658;SDS011;1339;53.304;10.406;2022-08-03T06:29:06;5.90;;;5.50;;
2658;SDS011;1339;53.304;10.406;2022-08-03T06:31:33;6.20;;;5.70;;
2658;SDS011;1339;53.304;10.406;2022-08-03T06:34:01;5.90;;;5.50;;
2658;SDS011;1339;53.304;10.406;2022-08-03T06:36:30;5.80;;;5.40;;
2658;SDS011;1339;53.304;10.406;2022-08-03T06:38:57;6.20;;;5.40;;
2658;SDS011;1339;53.304;10.406;2022-08-03T06:41:24;5.47;;;5.17;;
2658;SDS011;1339;53.304;10.406;2022-08-03T06:43:52;5.43;;;4.93;;
2658;SDS011;1339;53.304;10.406;2022-08-03T06:46:19;5.37;;;4.97;;
2658;SDS011;1339;53.304;10.406;2022-08-03T06:48:46;4.73;;;4.07;;
2658;SDS011;1339;53.304;10.406;2022-08-03T06:51:14;7.00;;;4.70;;
2658;SDS011;1339;53.304;10.406;2022-08-03T06:53:42;6.70;;;5.67;;
2658;SDS011;1339;53.304;10.406;2022-08-03T06:56:10;5.00;;;4.60;;
2658;SDS011;1339;53.304;10.406;2022-08-03T06:58:37;5.00;;;4.00;;
2658;SDS011;1339;53.304;10.406;2022-08-03T07:01:04;5.70;;;4.77;;
2658;SDS011;1339;53.304;10.406;2022-08-03T07:03:31;4.90;;;4.60;;
2658;SDS011;1339;53.304;10.406;2022-08-03T07:05:58;4.70;;;4.40;;
2658;SDS011;1339;53.304;10.406;2022-08-03T07:08:26;4.93;;;4.50;;
2658;SDS011;1339;53.304;10.406;2022-08-03T07:10:54;4.57;;;4.17;;
2658;SDS011;1339;53.304;10.406;2022-08-03T07:13:22;5.60;;;5.10;;
2658;SDS011;1339;53.304;10.406;2022-08-03T07:15:49;6.20;;;4.50;;
2658;SDS011;1339;53.304;10.406;2022-08-03T07:18:16;5.10;;;4.70;;
2658;SDS011;1339;53.304;10.406;2022-08-03T07:20:43;4.57;;;4.10;;
2658;SDS011;1339;53.304;10.406;2022-08-03T07:23:11;4.73;;;4.03;;
2658;SDS011;1339;53.304;10.406;2022-08-03T07:25:38;4.33;;;3.93;;
2658;SDS011;1339;53.304;10.406;2022-08-03T07:28:06;3.90;;;3.60;;
2658;SDS011;1339;53.304;10.406;2022-08-03T07:30:34;4.07;;;3.77;;
2658;SDS011;1339;53.304;10.406;2022-08-03T07:33:01;3.57;;;3.33;;
2658;SDS011;1339;53.304;10.406;2022-08-03T07:35:28;4.47;;;4.07;;
2658;SDS011;1339;53.304;10.406;2022-08-03T07:37:55;4.40;;;4.10;;
2658;SDS011;1339;53.304;10.406;2022-08-03T07:40:22;3.43;;;3.17;;
2658;SDS011;1339;53.304;10.406;2022-08-03T07:42:49;3.00;;;2.80;;
2658;SDS011;1339;53.304;10.406;2022-08-03T07:45:18;3.20;;;3.00;;
2658;SDS011;1339;53.304;10.406;2022-08-03T07:47:47;3.13;;;2.93;;
2658;SDS011;1339;53.304;10.406;2022-08-03T07:50:14;3.23;;;3.03;;
2658;SDS011;1339;53.304;10.406;2022-08-03T07:52:41;3.23;;;3.03;;
2658;SDS011;1339;53.304;10.406;2022-08-03T07:55:16;6.70;;;3.10;;
2658;SDS011;1339;53.304;10.406;2022-08-03T07:57:43;2.47;;;2.33;;
2658;SDS011;1339;53.304;10.406;2022-08-03T08:00:14;3.10;;;2.90;;
2658;SDS011;1339;53.304;10.406;2022-08-03T08:02:43;3.50;;;2.37;;
2658;SDS011;1339;53.304;10.406;2022-08-03T08:05:10;2.57;;;2.37;;
2658;SDS011;1339;53.304;10.406;2022-08-03T08:07:38;3.40;;;1.93;;
2658;SDS011;1339;53.304;10.406;2022-08-03T08:10:05;2.67;;;2.47;;
2658;SDS011;1339;53.304;10.406;2022-08-03T08:12:33;2.57;;;2.37;;
2658;SDS011;1339;53.304;10.406;2022-08-03T08:15:01;2.50;;;2.30;;
2658;SDS011;1339;53.304;10.406;2022-08-03T08:17:28;2.40;;;2.10;;
2658;SDS011;1339;53.304;10.406;2022-08-03T08:19:57;2.20;;;2.10;;
2658;SDS011;1339;53.304;10.406;2022-08-03T08:22:24;2.83;;;2.43;;
2658;SDS011;1339;53.304;10.406;2022-08-03T08:24:51;2.57;;;2.37;;
2658;SDS011;1339;53.304;10.406;2022-08-03T08:27:18;3.43;;;2.53;;
2658;SDS011;1339;53.304;10.406;2022-08-03T08:29:45;3.00;;;2.70;;
2658;SDS011;1339;53.304;10.406;2022-08-03T08:32:12;2.50;;;2.30;;
2658;SDS011;1339;53.304;10.406;2022-08-03T08:34:40;4.00;;;2.50;;
2658;SDS011;1339;53.304;10.406;2022-08-03T08:37:08;5.63;;;2.33;;
2658;SDS011;1339;53.304;10.406;2022-08-03T08:39:36;4.13;;;2.20;;
2658;SDS011;1339;53.304;10.406;2022-08-03T08:42:03;4.73;;;3.30;;
2658;SDS011;1339;53.304;10.406;2022-08-03T08:44:30;2.17;;;2.07;;
2658;SDS011;1339;53.304;10.406;2022-08-03T08:46:57;2.27;;;2.10;;
2658;SDS011;1339;53.304;10.406;2022-08-03T08:49:27;3.97;;;2.53;;
2658;SDS011;1339;53.304;10.406;2022-08-03T08:51:55;2.53;;;2.30;;
2658;SDS011;1339;53.304;10.406;2022-08-03T08:54:25;3.30;;;2.80;;
2658;SDS011;1339;53.304;10.406;2022-08-03T08:56:52;2.87;;;2.23;;
2658;SDS011;1339;53.304;10.406;2022-08-03T08:59:23;5.60;;;2.50;;
2658;SDS011;1339;53.304;10.406;2022-08-03T09:01:51;3.60;;;2.37;;
2658;SDS011;1339;53.304;10.406;2022-08-03T09:04:22;6.30;;;2.40;;
2658;SDS011;1339;53.304;10.406;2022-08-03T09:06:50;2.80;;;1.90;;
2658;SDS011;1339;53.304;10.406;2022-08-03T09:09:18;2.50;;;2.23;;
2658;SDS011;1339;53.304;10.406;2022-08-03T09:11:46;6.40;;;2.90;;
2658;SDS011;1339;53.304;10.406;2022-08-03T09:14:13;2.83;;;2.53;;
2658;SDS011;1339;53.304;10.406;2022-08-03T09:16:53;5.13;;;2.63;;
2658;SDS011;1339;53.304;10.406;2022-08-03T09:19:21;6.23;;;2.60;;
2658;SDS011;1339;53.304;10.406;2022-08-03T09:21:50;1.70;;;1.60;;
2658;SDS011;1339;53.304;10.406;2022-08-03T09:24:33;3.07;;;2.40;;
2658;SDS011;1339;53.304;10.406;2022-08-03T09:27:03;3.10;;;1.80;;
2658;SDS011;1339;53.304;10.406;2022-08-03T09:29:31;3.00;;;2.40;;
2658;SDS011;1339;53.304;10.406;2022-08-03T09:32:00;4.07;;;2.30;;
2658;SDS011;1339;53.304;10.406;2022-08-03T09:34:27;4.40;;;2.53;;
2658;SDS011;1339;53.304;10.406;2022-08-03T09:36:55;3.10;;;2.40;;
2658;SDS011;1339;53.304;10.406;2022-08-03T09:39:23;3.73;;;2.20;;
2658;SDS011;1339;53.304;10.406;2022-08-03T09:42:04;2.40;;;2.20;;
2658;SDS011;1339;53.304;10.406;2022-08-03T09:44:35;3.90;;;2.27;;
2658;SDS011;1339;53.304;10.406;2022-08-03T09:47:02;2.23;;;1.70;;
2658;SDS011;1339;53.304;10.406;2022-08-03T09:49:30;2.50;;;2.30;;
2658;SDS011;1339;53.304;10.406;2022-08-03T09:51:59;3.60;;;2.13;;
2658;SDS011;1339;53.304;10.406;2022-08-03T09:54:28;2.80;;;2.30;;
2658;SDS011;1339;53.304;10.406;2022-08-03T09:56:55;3.97;;;2.70;;
2658;SDS011;1339;53.304;10.406;2022-08-03T09:59:25;2.50;;;2.10;;
2658;SDS011;1339;53.304;10.406;2022-08-03T10:01:53;3.20;;;2.10;;
2658;SDS011;1339;53.304;10.406;2022-08-03T10:04:20;3.97;;;2.00;;
2658;SDS011;1339;53.304;10.406;2022-08-03T10:07:01;3.00;;;2.20;;
2658;SDS011;1339;53.304;10.406;2022-08-03T10:09:28;2.93;;;1.93;;
2658;SDS011;1339;53.304;10.406;2022-08-03T10:11:55;5.10;;;2.57;;
2658;SDS011;1339;53.304;10.406;2022-08-03T10:14:25;3.60;;;2.17;;
2658;SDS011;1339;53.304;10.406;2022-08-03T10:16:55;3.20;;;2.00;;
2658;SDS011;1339;53.304;10.406;2022-08-03T10:19:23;4.93;;;2.23;;
2658;SDS011;1339;53.304;10.406;2022-08-03T10:21:52;4.37;;;2.20;;
2658;SDS011;1339;53.304;10.406;2022-08-03T10:24:23;3.87;;;1.97;;
2658;SDS011;1339;53.304;10.406;2022-08-03T10:26:52;3.77;;;2.50;;
2658;SDS011;1339;53.304;10.406;2022-08-03T10:29:20;3.27;;;2.40;;
2658;SDS011;1339;53.304;10.406;2022-08-03T10:31:50;2.57;;;2.30;;
2658;SDS011;1339;53.304;10.406;2022-08-03T10:34:21;2.70;;;2.00;;
2658;SDS011;1339;53.304;10.406;2022-08-03T10:36:48;2.07;;;1.67;;
2658;SDS011;1339;53.304;10.406;2022-08-03T10:39:18;3.10;;;2.20;;
2658;SDS011;1339;53.304;10.406;2022-08-03T10:41:47;1.93;;;1.63;;
2658;SDS011;1339;53.304;10.406;2022-08-03T10:44:17;4.03;;;2.50;;
2658;SDS011;1339;53.304;10.406;2022-08-03T10:46:44;2.80;;;1.80;;
2658;SDS011;1339;53.304;10.406;2022-08-03T10:49:16;5.83;;;1.90;;
2658;SDS011;1339;53.304;10.406;2022-08-03T10:51:44;2.67;;;1.63;;
2658;SDS011;1339;53.304;10.406;2022-08-03T10:56:57;1.90;;;1.77;;
2658;SDS011;1339;53.304;10.406;2022-08-03T10:59:55;3.00;;;2.27;;
2658;SDS011;1339;53.304;10.406;2022-08-03T11:02:23;4.30;;;2.37;;
2658;SDS011;1339;53.304;10.406;2022-08-03T11:05:27;2.40;;;1.60;;
2658;SDS011;1339;53.304;10.406;2022-08-03T11:10:40;3.60;;;2.03;;
2658;SDS011;1339;53.304;10.406;2022-08-03T11:13:08;4.13;;;2.10;;
2658;SDS011;1339;53.304;10.406;2022-08-03T11:15:36;2.13;;;1.93;;
2658;SDS011;1339;53.304;10.406;2022-08-03T11:18:06;3.97;;;1.90;;
2658;SDS011;1339;53.304;10.406;2022-08-03T11:20:49;4.70;;;2.20;;
2658;SDS011;1339;53.304;10.406;2022-08-03T11:23:17;3.37;;;1.90;;
2658;SDS011;1339;53.304;10.406;2022-08-03T11:28:30;5.30;;;2.27;;
2658;SDS011;1339;53.304;10.406;2022-08-03T11:33:40;2.10;;;1.90;;
2658;SDS011;1339;53.304;10.406;2022-08-03T11:36:08;2.73;;;2.00;;
2658;SDS011;1339;53.304;10.406;2022-08-03T11:38:39;4.10;;;2.17;;
2658;SDS011;1339;53.304;10.406;2022-08-03T11:41:32;2.57;;;1.87;;
2658;SDS011;1339;53.304;10.406;2022-08-03T11:43:59;4.73;;;2.03;;
2658;SDS011;1339;53.304;10.406;2022-08-03T11:46:27;3.00;;;2.07;;
2658;SDS011;1339;53.304;10.406;2022-08-03T11:49:03;2.70;;;2.10;;
2658;SDS011;1339;53.304;10.406;2022-08-03T11:51:32;4.33;;;1.77;;
2658;SDS011;1339;53.304;10.406;2022-08-03T11:54:00;4.50;;;2.10;;
2658;SDS011;1339;53.304;10.406;2022-08-03T11:56:29;4.83;;;1.80;;
2658;SDS011;1339;53.304;10.406;2022-08-03T11:59:09;5.70;;;2.30;;
2658;SDS011;1339;53.304;10.406;2022-08-03T12:01:36;5.70;;;2.03;;
2658;SDS011;1339;53.304;10.406;2022-08-03T12:04:05;2.30;;;2.00;;
2658;SDS011;1339;53.304;10.406;2022-08-03T12:06:33;2.23;;;1.63;;
2658;SDS011;1339;53.304;10.406;2022-08-03T12:09:18;4.93;;;1.70;;
2658;SDS011;1339;53.304;10.406;2022-08-03T12:11:46;1.53;;;1.40;;
2658;SDS011;1339;53.304;10.406;2022-08-03T12:14:15;3.13;;;1.83;;
2658;SDS011;1339;53.304;10.406;2022-08-03T12:16:45;4.60;;;3.27;;
2658;SDS011;1339;53.304;10.406;2022-08-03T12:19:13;3.70;;;2.97;;
2658;SDS011;1339;53.304;10.406;2022-08-03T12:21:46;3.43;;;1.60;;
2658;SDS011;1339;53.304;10.406;2022-08-03T12:24:13;2.37;;;1.60;;
2658;SDS011;1339;53.304;10.406;2022-08-03T12:26:43;3.80;;;1.77;;
2658;SDS011;1339;53.304;10.406;2022-08-03T12:29:15;4.03;;;2.07;;
2658;SDS011;1339;53.304;10.406;2022-08-03T12:31:42;1.90;;;1.70;;
2658;SDS011;1339;53.304;10.406;2022-08-03T12:34:09;2.60;;;1.90;;
2658;SDS011;1339;53.304;10.406;2022-08-03T12:36:37;5.47;;;2.00;;
2658;SDS011;1339;53.304;10.406;2022-08-03T12:39:16;3.40;;;1.40;;
2658;SDS011;1339;53.304;10.406;2022-08-03T12:41:51;2.90;;;2.10;;
2658;SDS011;1339;53.304;10.406;2022-08-03T12:44:27;3.03;;;2.50;;
2658;SDS011;1339;53.304;10.406;2022-08-03T12:46:56;1.93;;;1.50;;
2658;SDS011;1339;53.304;10.406;2022-08-03T12:49:23;1.63;;;1.10;;
2658;SDS011;1339;53.304;10.406;2022-08-03T12:51:56;4.53;;;1.53;;
2658;SDS011;1339;53.304;10.406;2022-08-03T12:54:26;1.77;;;1.40;;
2658;SDS011;1339;53.304;10.406;2022-08-03T12:56:56;3.60;;;1.77;;
2658;SDS011;1339;53.304;10.406;2022-08-03T12:59:23;3.27;;;1.70;;
2658;SDS011;1339;53.304;10.406;2022-08-03T13:01:51;4.30;;;2.10;;
2658;SDS011;1339;53.304;10.406;2022-08-03T13:04:24;6.50;;;2.07;;
2658;SDS011;1339;53.304;10.406;2022-08-03T13:06:55;3.23;;;1.60;;
2658;SDS011;1339;53.304;10.406;2022-08-03T13:09:22;3.43;;;1.60;;
2658;SDS011;1339;53.304;10.406;2022-08-03T13:12:04;2.10;;;1.53;;
2658;SDS011;1339;53.304;10.406;2022-08-03T13:14:32;3.83;;;2.30;;
2658;SDS011;1339;53.304;10.406;2022-08-03T13:16:59;1.90;;;1.80;;
2658;SDS011;1339;53.304;10.406;2022-08-03T13:19:26;4.10;;;1.60;;
2658;SDS011;1339;53.304;10.406;2022-08-03T13:21:53;2.80;;;1.63;;
2658;SDS011;1339;53.304;10.406;2022-08-03T13:24:21;2.83;;;1.70;;
2658;SDS011;1339;53.304;10.406;2022-08-03T13:26:48;1.70;;;1.47;;
2658;SDS011;1339;53.304;10.406;2022-08-03T13:29:17;4.27;;;2.10;;
2658;SDS011;1339;53.304;10.406;2022-08-03T13:31:44;1.63;;;1.53;;
2658;SDS011;1339;53.304;10.406;2022-08-03T13:34:11;7.50;;;1.80;;
2658;SDS011;1339;53.304;10.406;2022-08-03T13:36:38;1.70;;;1.40;;
2658;SDS011;1339;53.304;10.406;2022-08-03T13:39:05;2.67;;;2.30;;
2658;SDS011;1339;53.304;10.406;2022-08-03T13:41:33;2.20;;;2.00;;
2658;SDS011;1339;53.304;10.406;2022-08-03T13:44:00;1.80;;;1.57;;
2658;SDS011;1339;53.304;10.406;2022-08-03T13:46:28;2.80;;;1.90;;
2658;SDS011;1339;53.304;10.406;2022-08-03T13:48:55;1.83;;;1.40;;
2658;SDS011;1339;53.304;10.406;2022-08-03T13:51:23;1.97;;;1.87;;
2658;SDS011;1339;53.304;10.406;2022-08-03T13:53:50;3.87;;;1.60;;
2658;SDS011;1339;53.304;10.406;2022-08-03T13:56:18;2.67;;;2.03;;
2658;SDS011;1339;53.304;10.406;2022-08-03T13:58:45;3.10;;;2.03;;
2658;SDS011;1339;53.304;10.406;2022-08-03T14:01:12;1.90;;;1.77;;
2658;SDS011;1339;53.304;10.406;2022-08-03T14:03:41;6.53;;;2.60;;
2658;SDS011;1339;53.304;10.406;2022-08-03T14:06:08;2.90;;;1.50;;
2658;SDS011;1339;53.304;10.406;2022-08-03T14:08:35;2.53;;;1.93;;
2658;SDS011;1339;53.304;10.406;2022-08-03T14:11:02;2.10;;;1.23;;
2658;SDS011;1339;53.304;10.406;2022-08-03T14:13:29;2.67;;;1.80;;
2658;SDS011;1339;53.304;10.406;2022-08-03T14:15:56;2.67;;;2.03;;
2658;SDS011;1339;53.304;10.406;2022-08-03T14:18:24;2.23;;;1.70;;
2658;SDS011;1339;53.304;10.406;2022-08-03T14:20:52;2.33;;;1.93;;
2658;SDS011;1339;53.304;10.406;2022-08-03T14:23:19;3.80;;;1.77;;
2658;SDS011;1339;53.304;10.406;2022-08-03T14:25:47;2.90;;;2.20;;
2658;SDS011;1339;53.304;10.406;2022-08-03T14:28:14;2.30;;;1.90;;
2658;SDS011;1339;53.304;10.406;2022-08-03T14:30:41;2.20;;;1.60;;
2658;SDS011;1339;53.304;10.406;2022-08-03T14:33:08;2.90;;;2.60;;
2658;SDS011;1339;53.304;10.406;2022-08-03T14:35:35;4.00;;;1.53;;
2658;SDS011;1339;53.304;10.406;2022-08-03T14:38:04;3.33;;;2.00;;
2658;SDS011;1339;53.304;10.406;2022-08-03T14:40:31;2.37;;;1.67;;
2658;SDS011;1339;53.304;10.406;2022-08-03T14:42:58;4.20;;;2.00;;
2658;SDS011;1339;53.304;10.406;2022-08-03T14:45:26;2.53;;;1.40;;
2658;SDS011;1339;53.304;10.406;2022-08-03T14:47:53;3.47;;;1.70;;
2658;SDS011;1339;53.304;10.406;2022-08-03T14:50:20;1.93;;;1.70;;
2658;SDS011;1339;53.304;10.406;2022-08-03T14:52:47;2.90;;;1.40;;
2658;SDS011;1339;53.304;10.406;2022-08-03T14:55:16;5.40;;;1.97;;
2658;SDS011;1339;53.304;10.406;2022-08-03T14:57:43;2.50;;;1.40;;
2658;SDS011;1339;53.304;10.406;2022-08-03T15:00:11;4.30;;;1.70;;
2658;SDS011;1339;53.304;10.406;2022-08-03T15:02:38;2.13;;;1.80;;
2658;SDS011;1339;53.304;10.406;2022-08-03T15:05:06;2.93;;;1.90;;
2658;SDS011;1339;53.304;10.406;2022-08-03T15:07:34;1.90;;;1.67;;
2658;SDS011;1339;53.304;10.406;2022-08-03T15:10:02;2.03;;;1.57;;
2658;SDS011;1339;53.304;10.406;2022-08-03T15:12:30;6.40;;;1.63;;
2658;SDS011;1339;53.304;10.406;2022-08-03T15:14:57;3.00;;;1.60;;
2658;SDS011;1339;53.304;10.406;2022-08-03T15:17:24;2.43;;;1.70;;
2658;SDS011;1339;53.304;10.406;2022-08-03T15:19:52;1.60;;;1.20;;